sensor_id;sensor_type;location;lat;lon;timestamp;P1;durP1;ratioP1;P2;durP2;ratioP2
29172;SDS011;16223;47.966;-1.616;2022-08-01T00:00:12;8.4625;;;4.7625;;
29172;SDS011;16223;47.966;-1.616;2022-08-01T00:01:12;15.399999999999999;;;6.45;;
29172;SDS011;16223;47.966;-1.616;2022-08-01T00:02:12;12.9125;;;6.7625;;
29172;SDS011;16223;47.966;-1.616;2022-08-01T00:03:12;14.862499999999999;;;6.612500000000001;;
29172;SDS011;16223;47.966;-1.616;2022-08-01T00:04:13;10.537500000000001;;;5.7875000000000005;;
29172;SDS011;16223;47.966;-1.616;2022-08-01T00:05:12;11.837499999999999;;;6.0375;;
29172;SDS011;16223;47.966;-1.616;2022-08-01T00:06:12;9.8875;;;5.4375;;
29172;SDS011;16223;47.966;-1.616;2022-08-01T00:07:13;12.375;;;5.4625;;
29172;SDS011;16223;47.966;-1.616;2022-08-01T00:08:12;11.075;;;5.4375;;
29172;SDS011;16223;47.966;-1.616;2022-08-01T00:09:12;47.65;;;9.4375;;
29172;SDS011;16223;47.966;-1.616;2022-08-01T00:10:13;6.9;;;4.6875;;
29172;SDS011;16223;47.966;-1.616;2022-08-01T00:11:12;19.7125;;;5.862500000000001;;
29172;SDS011;16223;47.966;-1.616;2022-08-01T00:12:13;12.399999999999999;;;6.275;;
29172;SDS011;16223;47.966;-1.616;2022-08-01T00:13:12;13.362499999999999;;;4.8875;;
29172;SDS011;16223;47.966;-1.616;2022-08-01T00:14:12;7.699999999999999;;;4.5125;;
29172;SDS011;16223;47.966;-1.616;2022-08-01T00:15:13;24.6125;;;6.4375;;
29172;SDS011;16223;47.966;-1.616;2022-08-01T00:16:12;20.15;;;5.7375;;
29172;SDS011;16223;47.966;-1.616;2022-08-01T00:17:12;12.1875;;;8.025;;
29172;SDS011;16223;47.966;-1.616;2022-08-01T00:18:13;10.8;;;5.2;;
29172;SDS011;16223;47.966;-1.616;2022-08-01T00:19:12;11.3625;;;8.2875;;
29172;SDS011;16223;47.966;-1.616;2022-08-01T00:20:13;12.65;;;6.8375;;
29172;SDS011;16223;47.966;-1.616;2022-08-01T00:21:13;13.174999999999999;;;6.0;;
29172;SDS011;16223;47.966;-1.616;2022-08-01T00:22:12;10.7625;;;5.8125;;
29172;SDS011;16223;47.966;-1.616;2022-08-01T00:23:13;11.125;;;5.475;;
29172;SDS011;16223;47.966;-1.616;2022-08-01T00:24:13;13.5;;;6.4;;
29172;SDS011;16223;47.966;-1.616;2022-08-01T00:25:12;6.949999999999999;;;4.3;;
29172;SDS011;16223;47.966;-1.616;2022-08-01T00:26:13;10.1375;;;5.3875;;
29172;SDS011;16223;47.966;-1.616;2022-08-01T00:27:12;9.125;;;4.55;;
29172;SDS011;16223;47.966;-1.616;2022-08-01T00:28:13;15.2625;;;5.4125;;
29172;SDS011;16223;47.966;-1.616;2022-08-01T00:29:13;18.3125;;;5.05;;
29172;SDS011;16223;47.966;-1.616;2022-08-01T00:30:12;13.375;;;4.7749999999999995;;
29172;SDS011;16223;47.966;-1.616;2022-08-01T00:31:13;11.8875;;;6.3875;;
29172;SDS011;16223;47.966;-1.616;2022-08-01T00:32:12;15.1375;;;5.275;;
29172;SDS011;16223;47.966;-1.616;2022-08-01T00:33:13;12.075;;;6.6625;;
29172;SDS011;16223;47.966;-1.616;2022-08-01T00:34:13;6.75;;;3.95;;
29172;SDS011;16223;47.966;-1.616;2022-08-01T00:35:12;6.387500000000001;;;3.8000000000000003;;
29172;SDS011;16223;47.966;-1.616;2022-08-01T00:36:12;14.9875;;;4.125;;
29172;SDS011;16223;47.966;-1.616;2022-08-01T00:37:13;15.075;;;5.3;;
29172;SDS011;16223;47.966;-1.616;2022-08-01T00:38:12;11.1625;;;4.8375;;
29172;SDS011;16223;47.966;-1.616;2022-08-01T00:39:13;13.65;;;6.9875;;
29172;SDS011;16223;47.966;-1.616;2022-08-01T00:40:12;9.112499999999999;;;5.1375;;
29172;SDS011;16223;47.966;-1.616;2022-08-01T00:41:12;7.2875;;;3.8000000000000003;;
29172;SDS011;16223;47.966;-1.616;2022-08-01T00:42:12;6.487500000000001;;;4.375;;
29172;SDS011;16223;47.966;-1.616;2022-08-01T00:43:12;15.4375;;;5.0875;;
29172;SDS011;16223;47.966;-1.616;2022-08-01T00:44:12;9.8625;;;4.4125000000000005;;
29172;SDS011;16223;47.966;-1.616;2022-08-01T00:45:13;5.65;;;3.7249999999999996;;
29172;SDS011;16223;47.966;-1.616;2022-08-01T00:46:12;8.925;;;4.875;;
29172;SDS011;16223;47.966;-1.616;2022-08-01T00:47:12;8.4125;;;3.9625000000000004;;
29172;SDS011;16223;47.966;-1.616;2022-08-01T00:48:12;8.5375;;;4.5625;;
29172;SDS011;16223;47.966;-1.616;2022-08-01T00:49:12;7.125;;;3.5624999999999996;;
29172;SDS011;16223;47.966;-1.616;2022-08-01T00:50:12;13.7;;;4.725;;
29172;SDS011;16223;47.966;-1.616;2022-08-01T00:51:12;12.875;;;4.925000000000001;;
29172;SDS011;16223;47.966;-1.616;2022-08-01T00:52:12;7.475;;;4.4125;;
29172;SDS011;16223;47.966;-1.616;2022-08-01T00:53:12;7.35;;;4.2125;;
29172;SDS011;16223;47.966;-1.616;2022-08-01T00:54:13;10.4875;;;4.5625;;
29172;SDS011;16223;47.966;-1.616;2022-08-01T00:55:12;10.25;;;4.125;;
29172;SDS011;16223;47.966;-1.616;2022-08-01T00:56:13;11.9875;;;4.425;;
29172;SDS011;16223;47.966;-1.616;2022-08-01T00:57:12;12.912500000000001;;;5.887499999999999;;
29172;SDS011;16223;47.966;-1.616;2022-08-01T00:58:13;12.100000000000001;;;4.3875;;
29172;SDS011;16223;47.966;-1.616;2022-08-01T00:59:12;10.575;;;4.675;;
29172;SDS011;16223;47.966;-1.616;2022-08-01T01:00:13;9.2875;;;4.05;;
29172;SDS011;16223;47.966;-1.616;2022-08-01T01:01:13;7.8999999999999995;;;5.1875;;
29172;SDS011;16223;47.966;-1.616;2022-08-01T01:02:12;10.525;;;4.7875;;
29172;SDS011;16223;47.966;-1.616;2022-08-01T01:03:12;15.8875;;;6.0375;;
29172;SDS011;16223;47.966;-1.616;2022-08-01T01:04:13;8.95;;;5.35;;
29172;SDS011;16223;47.966;-1.616;2022-08-01T01:05:13;10.45;;;4.3875;;
29172;SDS011;16223;47.966;-1.616;2022-08-01T01:06:30;6.2625;;;4.0;;
29172;SDS011;16223;47.966;-1.616;2022-08-01T01:07:14;18.837500000000002;;;6.95;;
29172;SDS011;16223;47.966;-1.616;2022-08-01T01:08:13;12.6625;;;6.0874999999999995;;
29172;SDS011;16223;47.966;-1.616;2022-08-01T01:09:17;12.450000000000001;;;4.7875;;
29172;SDS011;16223;47.966;-1.616;2022-08-01T01:10:15;9.9875;;;4.8374999999999995;;
29172;SDS011;16223;47.966;-1.616;2022-08-01T01:11:13;14.5;;;4.4;;
29172;SDS011;16223;47.966;-1.616;2022-08-01T01:12:15;10.6;;;4.0875;;
29172;SDS011;16223;47.966;-1.616;2022-08-01T01:13:14;12.9875;;;5.2875;;
29172;SDS011;16223;47.966;-1.616;2022-08-01T01:14:15;10.625;;;6.2375;;
29172;SDS011;16223;47.966;-1.616;2022-08-01T01:15:14;6.625;;;4.625;;
29172;SDS011;16223;47.966;-1.616;2022-08-01T01:16:13;7.262500000000001;;;4.9375;;
29172;SDS011;16223;47.966;-1.616;2022-08-01T01:17:13;7.6375;;;4.5874999999999995;;
29172;SDS011;16223;47.966;-1.616;2022-08-01T01:18:14;9.1625;;;3.8625;;
29172;SDS011;16223;47.966;-1.616;2022-08-01T01:19:15;9.5375;;;4.625;;
29172;SDS011;16223;47.966;-1.616;2022-08-01T01:20:13;9.05;;;4.825;;
29172;SDS011;16223;47.966;-1.616;2022-08-01T01:22:17;9.0625;;;5.550000000000001;;
29172;SDS011;16223;47.966;-1.616;2022-08-01T01:23:17;10.049999999999999;;;4.8374999999999995;;
29172;SDS011;16223;47.966;-1.616;2022-08-01T01:24:16;19.25;;;5.775;;
29172;SDS011;16223;47.966;-1.616;2022-08-01T01:25:24;12.850000000000001;;;4.4375;;
29172;SDS011;16223;47.966;-1.616;2022-08-01T01:26:23;11.975;;;3.6875000000000004;;
29172;SDS011;16223;47.966;-1.616;2022-08-01T01:27:16;5.75;;;3.9499999999999997;;
29172;SDS011;16223;47.966;-1.616;2022-08-01T01:28:15;12.6125;;;5.425;;
29172;SDS011;16223;47.966;-1.616;2022-08-01T01:29:13;13.075;;;4.9125;;
29172;SDS011;16223;47.966;-1.616;2022-08-01T01:30:13;12.15;;;5.387500000000001;;
29172;SDS011;16223;47.966;-1.616;2022-08-01T01:31:12;13.7;;;4.475;;
29172;SDS011;16223;47.966;-1.616;2022-08-01T01:32:14;6.924999999999999;;;4.3125;;
29172;SDS011;16223;47.966;-1.616;2022-08-01T01:33:13;11.762500000000001;;;4.8125;;
29172;SDS011;16223;47.966;-1.616;2022-08-01T01:34:13;7.4624999999999995;;;4.375;;
29172;SDS011;16223;47.966;-1.616;2022-08-01T01:35:14;5.425;;;3.5375;;
29172;SDS011;16223;47.966;-1.616;2022-08-01T01:36:12;10.125;;;5.112500000000001;;
29172;SDS011;16223;47.966;-1.616;2022-08-01T01:37:14;12.65;;;3.9624999999999995;;
29172;SDS011;16223;47.966;-1.616;2022-08-01T01:38:14;15.237499999999997;;;4.487500000000001;;
29172;SDS011;16223;47.966;-1.616;2022-08-01T01:39:12;10.775;;;4.0125;;
29172;SDS011;16223;47.966;-1.616;2022-08-01T01:40:12;10.55;;;4.45;;
29172;SDS011;16223;47.966;-1.616;2022-08-01T01:41:13;12.275;;;4.625;;
29172;SDS011;16223;47.966;-1.616;2022-08-01T01:42:13;15.487499999999999;;;4.2875;;
29172;SDS011;16223;47.966;-1.616;2022-08-01T01:43:13;9.825;;;4.7625;;
29172;SDS011;16223;47.966;-1.616;2022-08-01T01:44:12;7.675000000000001;;;3.2;;
29172;SDS011;16223;47.966;-1.616;2022-08-01T01:45:12;12.5875;;;3.8875;;
29172;SDS011;16223;47.966;-1.616;2022-08-01T01:46:13;9.1375;;;3.5375;;
29172;SDS011;16223;47.966;-1.616;2022-08-01T01:47:12;12.5625;;;4.025;;
29172;SDS011;16223;47.966;-1.616;2022-08-01T01:48:13;8.8625;;;4.3375;;
29172;SDS011;16223;47.966;-1.616;2022-08-01T01:49:13;17.5875;;;3.8000000000000003;;
29172;SDS011;16223;47.966;-1.616;2022-08-01T01:50:12;7.137499999999999;;;3.9624999999999995;;
29172;SDS011;16223;47.966;-1.616;2022-08-01T01:51:13;7.525;;;3.8;;
29172;SDS011;16223;47.966;-1.616;2022-08-01T01:52:12;10.0125;;;3.6000000000000005;;
29172;SDS011;16223;47.966;-1.616;2022-08-01T01:53:13;17.924999999999997;;;3.5249999999999995;;
29172;SDS011;16223;47.966;-1.616;2022-08-01T01:54:12;17.1875;;;3.925;;
29172;SDS011;16223;47.966;-1.616;2022-08-01T01:55:12;8.962499999999999;;;5.2375;;
29172;SDS011;16223;47.966;-1.616;2022-08-01T01:56:12;6.6;;;3.5374999999999996;;
29172;SDS011;16223;47.966;-1.616;2022-08-01T01:57:12;9.762500000000001;;;4.2;;
29172;SDS011;16223;47.966;-1.616;2022-08-01T01:58:13;6.425000000000001;;;4.05;;
29172;SDS011;16223;47.966;-1.616;2022-08-01T01:59:12;7.074999999999999;;;4.4875;;
29172;SDS011;16223;47.966;-1.616;2022-08-01T02:00:13;10.85;;;4.025;;
29172;SDS011;16223;47.966;-1.616;2022-08-01T02:01:12;7.0375;;;3.5500000000000003;;
29172;SDS011;16223;47.966;-1.616;2022-08-01T02:02:12;9.7625;;;4.550000000000001;;
29172;SDS011;16223;47.966;-1.616;2022-08-01T02:03:12;6.5249999999999995;;;3.2750000000000004;;
29172;SDS011;16223;47.966;-1.616;2022-08-01T02:04:13;6.675;;;2.825;;
29172;SDS011;16223;47.966;-1.616;2022-08-01T02:05:12;6.2;;;4.487500000000001;;
29172;SDS011;16223;47.966;-1.616;2022-08-01T02:06:13;7.4375;;;3.7;;
29172;SDS011;16223;47.966;-1.616;2022-08-01T02:07:13;6.0375;;;4.65;;
29172;SDS011;16223;47.966;-1.616;2022-08-01T02:08:14;15.325;;;3.7;;
29172;SDS011;16223;47.966;-1.616;2022-08-01T02:09:13;8.8;;;3.925;;
29172;SDS011;16223;47.966;-1.616;2022-08-01T02:10:12;7.3375;;;3.425;;
29172;SDS011;16223;47.966;-1.616;2022-08-01T02:11:13;13.4375;;;3.7125;;
29172;SDS011;16223;47.966;-1.616;2022-08-01T02:12:12;6.074999999999999;;;3.6375;;
29172;SDS011;16223;47.966;-1.616;2022-08-01T02:13:13;12.5125;;;3.3625;;
29172;SDS011;16223;47.966;-1.616;2022-08-01T02:14:13;9.4375;;;3.7875;;
29172;SDS011;16223;47.966;-1.616;2022-08-01T02:15:13;11.912500000000001;;;4.5375;;
29172;SDS011;16223;47.966;-1.616;2022-08-01T02:16:12;13.7375;;;3.4875;;
29172;SDS011;16223;47.966;-1.616;2022-08-01T02:17:15;8.7875;;;4.137499999999999;;
29172;SDS011;16223;47.966;-1.616;2022-08-01T02:18:12;6.5;;;3.0;;
29172;SDS011;16223;47.966;-1.616;2022-08-01T02:19:13;13.3125;;;4.0625;;
29172;SDS011;16223;47.966;-1.616;2022-08-01T02:20:12;6.425000000000001;;;3.1624999999999996;;
29172;SDS011;16223;47.966;-1.616;2022-08-01T02:21:13;4.8875;;;4.025;;
29172;SDS011;16223;47.966;-1.616;2022-08-01T02:22:14;9.2375;;;3.55;;
29172;SDS011;16223;47.966;-1.616;2022-08-01T02:23:13;10.05;;;4.325;;
29172;SDS011;16223;47.966;-1.616;2022-08-01T02:24:13;5.0;;;3.0875;;
29172;SDS011;16223;47.966;-1.616;2022-08-01T02:25:15;13.2625;;;5.1875;;
29172;SDS011;16223;47.966;-1.616;2022-08-01T02:26:14;7.6125;;;3.6624999999999996;;
29172;SDS011;16223;47.966;-1.616;2022-08-01T02:27:17;7.987500000000001;;;3.65;;
29172;SDS011;16223;47.966;-1.616;2022-08-01T02:28:13;9.100000000000001;;;4.0875;;
29172;SDS011;16223;47.966;-1.616;2022-08-01T02:29:13;10.1375;;;3.125;;
29172;SDS011;16223;47.966;-1.616;2022-08-01T02:30:13;8.5375;;;2.8375;;
29172;SDS011;16223;47.966;-1.616;2022-08-01T02:31:13;4.862500000000001;;;3.375;;
29172;SDS011;16223;47.966;-1.616;2022-08-01T02:32:14;5.3125;;;3.1875;;
29172;SDS011;16223;47.966;-1.616;2022-08-01T02:33:15;10.512500000000001;;;4.862500000000001;;
29172;SDS011;16223;47.966;-1.616;2022-08-01T02:34:13;12.45;;;3.2375;;
29172;SDS011;16223;47.966;-1.616;2022-08-01T02:35:13;12.7375;;;3.8;;
29172;SDS011;16223;47.966;-1.616;2022-08-01T02:36:13;10.375;;;3.5625;;
29172;SDS011;16223;47.966;-1.616;2022-08-01T02:37:13;14.587499999999999;;;4.35;;
29172;SDS011;16223;47.966;-1.616;2022-08-01T02:38:12;9.45;;;4.95;;
29172;SDS011;16223;47.966;-1.616;2022-08-01T02:39:13;8.2875;;;4.5125;;
29172;SDS011;16223;47.966;-1.616;2022-08-01T02:40:13;9.0625;;;4.387499999999999;;
29172;SDS011;16223;47.966;-1.616;2022-08-01T02:41:14;6.3375;;;3.8;;
29172;SDS011;16223;47.966;-1.616;2022-08-01T02:42:12;11.625;;;3.9625;;
29172;SDS011;16223;47.966;-1.616;2022-08-01T02:43:13;8.6;;;3.5125;;
29172;SDS011;16223;47.966;-1.616;2022-08-01T02:44:14;5.9125;;;3.7625;;
29172;SDS011;16223;47.966;-1.616;2022-08-01T02:45:13;3.9;;;2.525;;
29172;SDS011;16223;47.966;-1.616;2022-08-01T02:46:15;6.275;;;3.25;;
29172;SDS011;16223;47.966;-1.616;2022-08-01T02:47:13;10.149999999999999;;;3.5374999999999996;;
29172;SDS011;16223;47.966;-1.616;2022-08-01T02:48:13;7.062500000000001;;;3.9;;
29172;SDS011;16223;47.966;-1.616;2022-08-01T02:49:12;11.65;;;4.1125;;
29172;SDS011;16223;47.966;-1.616;2022-08-01T02:50:12;6.1125;;;3.7125;;
29172;SDS011;16223;47.966;-1.616;2022-08-01T02:51:13;6.450000000000001;;;3.375;;
29172;SDS011;16223;47.966;-1.616;2022-08-01T02:52:13;7.7;;;4.125;;
29172;SDS011;16223;47.966;-1.616;2022-08-01T02:53:13;6.0375;;;3.8625;;
29172;SDS011;16223;47.966;-1.616;2022-08-01T02:54:12;8.0625;;;3.4125;;
29172;SDS011;16223;47.966;-1.616;2022-08-01T02:55:12;5.8125;;;3.0;;
29172;SDS011;16223;47.966;-1.616;2022-08-01T02:56:13;5.95;;;3.0125;;
29172;SDS011;16223;47.966;-1.616;2022-08-01T02:57:12;10.1375;;;3.375;;
29172;SDS011;16223;47.966;-1.616;2022-08-01T02:58:12;7.35;;;4.225;;
29172;SDS011;16223;47.966;-1.616;2022-08-01T02:59:13;7.325;;;2.95;;
29172;SDS011;16223;47.966;-1.616;2022-08-01T03:00:13;4.637499999999999;;;2.9375;;
29172;SDS011;16223;47.966;-1.616;2022-08-01T03:01:12;3.6875;;;3.2375000000000003;;
29172;SDS011;16223;47.966;-1.616;2022-08-01T03:02:12;9.024999999999999;;;3.9125;;
29172;SDS011;16223;47.966;-1.616;2022-08-01T03:03:13;7.7375;;;4.324999999999999;;
29172;SDS011;16223;47.966;-1.616;2022-08-01T03:04:13;8.649999999999999;;;3.7125000000000004;;
29172;SDS011;16223;47.966;-1.616;2022-08-01T03:05:12;7.5875;;;3.4375;;
29172;SDS011;16223;47.966;-1.616;2022-08-01T03:06:12;7.1;;;5.7;;
29172;SDS011;16223;47.966;-1.616;2022-08-01T03:07:12;11.737499999999999;;;4.525;;
29172;SDS011;16223;47.966;-1.616;2022-08-01T03:08:12;6.362500000000001;;;3.15;;
29172;SDS011;16223;47.966;-1.616;2022-08-01T03:09:12;6.7375;;;3.9750000000000005;;
29172;SDS011;16223;47.966;-1.616;2022-08-01T03:10:12;9.1375;;;3.0375;;
29172;SDS011;16223;47.966;-1.616;2022-08-01T03:11:12;10.5125;;;3.6624999999999996;;
29172;SDS011;16223;47.966;-1.616;2022-08-01T03:12:14;6.199999999999999;;;4.487500000000001;;
29172;SDS011;16223;47.966;-1.616;2022-08-01T03:13:13;6.8125;;;3.175;;
29172;SDS011;16223;47.966;-1.616;2022-08-01T03:14:12;7.775;;;4.125;;
29172;SDS011;16223;47.966;-1.616;2022-08-01T03:15:13;9.0375;;;3.2625;;
29172;SDS011;16223;47.966;-1.616;2022-08-01T03:16:16;11.600000000000001;;;4.125;;
29172;SDS011;16223;47.966;-1.616;2022-08-01T03:17:12;11.625;;;3.45;;
29172;SDS011;16223;47.966;-1.616;2022-08-01T03:18:12;5.9;;;3.3625;;
29172;SDS011;16223;47.966;-1.616;2022-08-01T03:19:13;7.9;;;3.1624999999999996;;
29172;SDS011;16223;47.966;-1.616;2022-08-01T03:20:13;4.887499999999999;;;3.125;;
29172;SDS011;16223;47.966;-1.616;2022-08-01T03:21:12;11.775;;;2.9625;;
29172;SDS011;16223;47.966;-1.616;2022-08-01T03:22:12;11.475000000000001;;;2.8125;;
29172;SDS011;16223;47.966;-1.616;2022-08-01T03:23:12;12.6875;;;3.5875000000000004;;
29172;SDS011;16223;47.966;-1.616;2022-08-01T03:24:12;10.8;;;3.8499999999999996;;
29172;SDS011;16223;47.966;-1.616;2022-08-01T03:25:13;5.425000000000001;;;2.95;;
29172;SDS011;16223;47.966;-1.616;2022-08-01T03:26:13;4.4375;;;3.0375;;
29172;SDS011;16223;47.966;-1.616;2022-08-01T03:27:13;4.6375;;;2.975;;
29172;SDS011;16223;47.966;-1.616;2022-08-01T03:28:13;5.2125;;;2.8499999999999996;;
29172;SDS011;16223;47.966;-1.616;2022-08-01T03:29:14;5.7125;;;3.4000000000000004;;
29172;SDS011;16223;47.966;-1.616;2022-08-01T03:30:13;5.15;;;3.1;;
29172;SDS011;16223;47.966;-1.616;2022-08-01T03:31:13;3.6625000000000005;;;2.625;;
29172;SDS011;16223;47.966;-1.616;2022-08-01T03:32:13;6.749999999999999;;;2.8375;;
29172;SDS011;16223;47.966;-1.616;2022-08-01T03:33:12;9.899999999999999;;;2.8375000000000004;;
29172;SDS011;16223;47.966;-1.616;2022-08-01T03:34:12;4.0875;;;2.95;;
29172;SDS011;16223;47.966;-1.616;2022-08-01T03:35:12;7.05;;;3.4;;
29172;SDS011;16223;47.966;-1.616;2022-08-01T03:36:12;2.175;;;1.6875;;
29172;SDS011;16223;47.966;-1.616;2022-08-01T03:37:14;6.7250000000000005;;;2.8125;;
29172;SDS011;16223;47.966;-1.616;2022-08-01T03:38:12;5.825;;;2.7874999999999996;;
29172;SDS011;16223;47.966;-1.616;2022-08-01T03:39:12;7.7;;;2.7874999999999996;;
29172;SDS011;16223;47.966;-1.616;2022-08-01T03:40:13;6.9875;;;3.3625;;
29172;SDS011;16223;47.966;-1.616;2022-08-01T03:41:13;3.9625;;;2.8625;;
29172;SDS011;16223;47.966;-1.616;2022-08-01T03:42:14;6.125;;;2.4749999999999996;;
29172;SDS011;16223;47.966;-1.616;2022-08-01T03:43:15;3.8000000000000003;;;3.15;;
29172;SDS011;16223;47.966;-1.616;2022-08-01T03:44:14;4.8875;;;2.6875;;
29172;SDS011;16223;47.966;-1.616;2022-08-01T03:45:15;7.0125;;;3.875;;
29172;SDS011;16223;47.966;-1.616;2022-08-01T03:46:13;4.0;;;2.95;;
29172;SDS011;16223;47.966;-1.616;2022-08-01T03:47:12;5.375;;;2.5875000000000004;;
29172;SDS011;16223;47.966;-1.616;2022-08-01T03:48:13;2.3125;;;2.0875;;
29172;SDS011;16223;47.966;-1.616;2022-08-01T03:49:14;3.4875;;;2.3;;
29172;SDS011;16223;47.966;-1.616;2022-08-01T03:50:13;5.95;;;2.8375;;
29172;SDS011;16223;47.966;-1.616;2022-08-01T03:51:13;4.225;;;2.775;;
29172;SDS011;16223;47.966;-1.616;2022-08-01T03:52:13;4.25;;;2.4125000000000005;;
29172;SDS011;16223;47.966;-1.616;2022-08-01T03:53:13;5.6;;;2.1125;;
29172;SDS011;16223;47.966;-1.616;2022-08-01T03:54:13;5.15;;;2.6624999999999996;;
29172;SDS011;16223;47.966;-1.616;2022-08-01T03:55:12;4.800000000000001;;;2.475;;
29172;SDS011;16223;47.966;-1.616;2022-08-01T03:56:13;8.5875;;;2.5625;;
29172;SDS011;16223;47.966;-1.616;2022-08-01T03:57:12;1.9124999999999999;;;1.775;;
29172;SDS011;16223;47.966;-1.616;2022-08-01T03:58:13;7.449999999999999;;;2.0125;;
29172;SDS011;16223;47.966;-1.616;2022-08-01T03:59:12;5.8125;;;2.4125;;
29172;SDS011;16223;47.966;-1.616;2022-08-01T04:00:13;3.775;;;2.0374999999999996;;
29172;SDS011;16223;47.966;-1.616;2022-08-01T04:01:13;3.4000000000000004;;;2.0749999999999997;;
29172;SDS011;16223;47.966;-1.616;2022-08-01T04:02:12;5.9875;;;2.0374999999999996;;
29172;SDS011;16223;47.966;-1.616;2022-08-01T04:03:16;3.425;;;2.2;;
29172;SDS011;16223;47.966;-1.616;2022-08-01T04:04:13;5.0625;;;3.3249999999999997;;
29172;SDS011;16223;47.966;-1.616;2022-08-01T04:05:13;3.5625;;;3.0250000000000004;;
29172;SDS011;16223;47.966;-1.616;2022-08-01T04:06:12;4.85;;;2.4625;;
29172;SDS011;16223;47.966;-1.616;2022-08-01T04:07:29;5.5875;;;2.525;;
29172;SDS011;16223;47.966;-1.616;2022-08-01T04:08:12;2.6500000000000004;;;1.9500000000000002;;
29172;SDS011;16223;47.966;-1.616;2022-08-01T04:09:12;3.5875000000000004;;;2.525;;
29172;SDS011;16223;47.966;-1.616;2022-08-01T04:10:12;5.7875;;;2.5375;;
29172;SDS011;16223;47.966;-1.616;2022-08-01T04:11:23;2.9125000000000005;;;2.025;;
29172;SDS011;16223;47.966;-1.616;2022-08-01T04:12:12;3.4625;;;2.5125;;
29172;SDS011;16223;47.966;-1.616;2022-08-01T04:13:12;3.775;;;1.6625;;
29172;SDS011;16223;47.966;-1.616;2022-08-01T04:14:12;4.4125;;;2.7125;;
29172;SDS011;16223;47.966;-1.616;2022-08-01T04:15:12;3.05;;;1.9249999999999998;;
29172;SDS011;16223;47.966;-1.616;2022-08-01T04:16:13;4.824999999999999;;;2.3374999999999995;;
29172;SDS011;16223;47.966;-1.616;2022-08-01T04:17:12;5.4375;;;3.0250000000000004;;
29172;SDS011;16223;47.966;-1.616;2022-08-01T04:18:12;5.237500000000001;;;2.7750000000000004;;
29172;SDS011;16223;47.966;-1.616;2022-08-01T04:19:13;6.5375;;;2.4875;;
29172;SDS011;16223;47.966;-1.616;2022-08-01T04:20:12;7.025;;;3.0375;;
29172;SDS011;16223;47.966;-1.616;2022-08-01T04:21:13;6.5875;;;2.625;;
29172;SDS011;16223;47.966;-1.616;2022-08-01T04:22:13;9.575;;;2.5124999999999997;;
29172;SDS011;16223;47.966;-1.616;2022-08-01T04:23:13;8.325000000000001;;;2.15;;
29172;SDS011;16223;47.966;-1.616;2022-08-01T04:24:13;5.775;;;2.15;;
29172;SDS011;16223;47.966;-1.616;2022-08-01T04:25:14;12.8;;;2.2874999999999996;;
29172;SDS011;16223;47.966;-1.616;2022-08-01T04:26:12;2.9125;;;2.5374999999999996;;
29172;SDS011;16223;47.966;-1.616;2022-08-01T04:27:13;6.9875;;;3.3999999999999995;;
29172;SDS011;16223;47.966;-1.616;2022-08-01T04:28:13;2.6625;;;2.2125;;
29172;SDS011;16223;47.966;-1.616;2022-08-01T04:29:12;5.05;;;2.3125;;
29172;SDS011;16223;47.966;-1.616;2022-08-01T04:30:12;4.5375;;;2.4125;;
29172;SDS011;16223;47.966;-1.616;2022-08-01T04:31:12;4.725;;;2.0749999999999997;;
29172;SDS011;16223;47.966;-1.616;2022-08-01T04:32:12;2.7375;;;2.0375;;
29172;SDS011;16223;47.966;-1.616;2022-08-01T04:33:13;3.3125;;;2.1625;;
29172;SDS011;16223;47.966;-1.616;2022-08-01T04:34:13;3.15;;;2.2249999999999996;;
29172;SDS011;16223;47.966;-1.616;2022-08-01T04:35:13;2.3125;;;1.9124999999999999;;
29172;SDS011;16223;47.966;-1.616;2022-08-01T04:36:13;5.825;;;2.5875;;
29172;SDS011;16223;47.966;-1.616;2022-08-01T04:37:12;3.2;;;1.9499999999999997;;
29172;SDS011;16223;47.966;-1.616;2022-08-01T04:38:14;4.824999999999999;;;2.475;;
29172;SDS011;16223;47.966;-1.616;2022-08-01T04:39:12;1.925;;;1.7374999999999998;;
29172;SDS011;16223;47.966;-1.616;2022-08-01T04:40:13;3.6875;;;2.6875;;
29172;SDS011;16223;47.966;-1.616;2022-08-01T04:41:13;5.15;;;3.7;;
29172;SDS011;16223;47.966;-1.616;2022-08-01T04:42:12;5.074999999999999;;;3.05;;
29172;SDS011;16223;47.966;-1.616;2022-08-01T04:43:12;4.4375;;;2.8875;;
29172;SDS011;16223;47.966;-1.616;2022-08-01T04:44:13;6.275;;;2.775;;
29172;SDS011;16223;47.966;-1.616;2022-08-01T04:45:13;3.775;;;2.3125;;
29172;SDS011;16223;47.966;-1.616;2022-08-01T04:46:13;6.450000000000001;;;2.7249999999999996;;
29172;SDS011;16223;47.966;-1.616;2022-08-01T04:47:12;4.4;;;2.675;;
29172;SDS011;16223;47.966;-1.616;2022-08-01T04:48:13;4.6375;;;2.3625;;
29172;SDS011;16223;47.966;-1.616;2022-08-01T04:49:12;3.0250000000000004;;;2.0125;;
29172;SDS011;16223;47.966;-1.616;2022-08-01T04:50:12;5.125;;;2.35;;
29172;SDS011;16223;47.966;-1.616;2022-08-01T04:51:13;3.9625;;;1.8375;;
29172;SDS011;16223;47.966;-1.616;2022-08-01T04:52:12;4.0875;;;2.5;;
29172;SDS011;16223;47.966;-1.616;2022-08-01T04:53:13;3.4625;;;3.0625;;
29172;SDS011;16223;47.966;-1.616;2022-08-01T04:54:12;3.325;;;2.5875;;
29172;SDS011;16223;47.966;-1.616;2022-08-01T04:55:12;3.725;;;2.5875;;
29172;SDS011;16223;47.966;-1.616;2022-08-01T04:56:13;6.0375;;;2.7;;
29172;SDS011;16223;47.966;-1.616;2022-08-01T04:57:12;5.5875;;;2.9125;;
29172;SDS011;16223;47.966;-1.616;2022-08-01T04:58:12;3.3125;;;2.225;;
29172;SDS011;16223;47.966;-1.616;2022-08-01T04:59:12;6.9375;;;2.7375;;
29172;SDS011;16223;47.966;-1.616;2022-08-01T05:00:13;2.825;;;2.075;;
29172;SDS011;16223;47.966;-1.616;2022-08-01T05:01:15;5.0625;;;2.45;;
29172;SDS011;16223;47.966;-1.616;2022-08-01T05:02:13;5.5875;;;3.0374999999999996;;
29172;SDS011;16223;47.966;-1.616;2022-08-01T05:03:12;5.3;;;2.875;;
29172;SDS011;16223;47.966;-1.616;2022-08-01T05:04:13;3.65;;;2.75;;
29172;SDS011;16223;47.966;-1.616;2022-08-01T05:05:12;3.1375;;;2.6875;;
29172;SDS011;16223;47.966;-1.616;2022-08-01T05:06:12;3.1000000000000005;;;2.4625;;
29172;SDS011;16223;47.966;-1.616;2022-08-01T05:07:12;5.525;;;2.6875;;
29172;SDS011;16223;47.966;-1.616;2022-08-01T05:08:13;2.7375;;;2.3375;;
29172;SDS011;16223;47.966;-1.616;2022-08-01T05:09:13;5.675000000000001;;;2.7875000000000005;;
29172;SDS011;16223;47.966;-1.616;2022-08-01T05:10:12;6.3;;;2.075;;
29172;SDS011;16223;47.966;-1.616;2022-08-01T05:11:12;7.4125000000000005;;;2.1875;;
29172;SDS011;16223;47.966;-1.616;2022-08-01T05:12:12;3.625;;;2.3125;;
29172;SDS011;16223;47.966;-1.616;2022-08-01T05:13:12;3.2125;;;1.8125;;
29172;SDS011;16223;47.966;-1.616;2022-08-01T05:14:12;4.4125;;;2.6375;;
29172;SDS011;16223;47.966;-1.616;2022-08-01T05:15:12;3.2625;;;2.1875;;
29172;SDS011;16223;47.966;-1.616;2022-08-01T05:16:12;2.575;;;2.2375;;